sensor_id;sensor_type;location;lat;lon;timestamp;temperature;humidity
758;DHT22;363;48.764;9.172;2023-04-15T00:01:59;6.10;99.90
758;DHT22;363;48.764;9.172;2023-04-15T00:04:25;6.10;99.90
758;DHT22;363;48.764;9.172;2023-04-15T00:06:52;6.30;99.90
758;DHT22;363;48.764;9.172;2023-04-15T00:09:18;6.10;99.90
758;DHT22;363;48.764;9.172;2023-04-15T00:11:44;6.10;99.90
758;DHT22;363;48.764;9.172;2023-04-15T00:14:12;5.80;99.90
758;DHT22;363;48.764;9.172;2023-04-15T00:16:38;5.40;99.90
758;DHT22;363;48.764;9.172;2023-04-15T00:19:03;5.80;99.90
758;DHT22;363;48.764;9.172;2023-04-15T00:21:30;6.00;99.90
758;DHT22;363;48.764;9.172;2023-04-15T00:23:56;6.00;99.90
758;DHT22;363;48.764;9.172;2023-04-15T00:26:21;6.00;99.90
758;DHT22;363;48.764;9.172;2023-04-15T00:28:47;5.80;99.90
758;DHT22;363;48.764;9.172;2023-04-15T00:31:13;5.60;99.90
758;DHT22;363;48.764;9.172;2023-04-15T00:33:39;5.90;99.90
758;DHT22;363;48.764;9.172;2023-04-15T00:36:06;5.80;99.90
758;DHT22;363;48.764;9.172;2023-04-15T00:38:32;5.60;99.90
758;DHT22;363;48.764;9.172;2023-04-15T00:40:58;5.30;99.90
758;DHT22;363;48.764;9.172;2023-04-15T00:43:24;5.80;99.90
758;DHT22;363;48.764;9.172;2023-04-15T00:45:52;6.20;99.90
758;DHT22;363;48.764;9.172;2023-04-15T00:48:19;5.60;99.90
758;DHT22;363;48.764;9.172;2023-04-15T00:50:45;5.70;99.90
758;DHT22;363;48.764;9.172;2023-04-15T00:53:11;5.70;99.90
758;DHT22;363;48.764;9.172;2023-04-15T00:55:36;5.20;99.90
758;DHT22;363;48.764;9.172;2023-04-15T00:58:02;5.60;99.90
758;DHT22;363;48.764;9.172;2023-04-15T01:00:28;5.90;99.90
758;DHT22;363;48.764;9.172;2023-04-15T01:02:54;4.90;99.90
758;DHT22;363;48.764;9.172;2023-04-15T01:05:20;5.30;99.90
758;DHT22;363;48.764;9.172;2023-04-15T01:07:47;5.50;99.90
758;DHT22;363;48.764;9.172;2023-04-15T01:10:13;5.60;99.90
758;DHT22;363;48.764;9.172;2023-04-15T01:12:38;5.30;99.90
758;DHT22;363;48.764;9.172;2023-04-15T01:15:05;5.90;99.90
758;DHT22;363;48.764;9.172;2023-04-15T01:17:30;5.40;99.90
758;DHT22;363;48.764;9.172;2023-04-15T01:19:57;5.20;99.90
758;DHT22;363;48.764;9.172;2023-04-15T01:22:23;5.30;99.90
758;DHT22;363;48.764;9.172;2023-04-15T01:24:55;5.20;99.90
758;DHT22;363;48.764;9.172;2023-04-15T01:27:22;5.10;99.90
758;DHT22;363;48.764;9.172;2023-04-15T01:29:48;5.20;99.90
758;DHT22;363;48.764;9.172;2023-04-15T01:32:13;4.70;99.90
758;DHT22;363;48.764;9.172;2023-04-15T01:34:39;5.40;99.90
758;DHT22;363;48.764;9.172;2023-04-15T01:37:04;5.40;99.90
758;DHT22;363;48.764;9.172;2023-04-15T01:39:30;4.90;99.90
758;DHT22;363;48.764;9.172;2023-04-15T01:41:56;4.50;99.90
758;DHT22;363;48.764;9.172;2023-04-15T01:44:21;5.00;99.90
758;DHT22;363;48.764;9.172;2023-04-15T01:46:47;5.30;99.90
758;DHT22;363;48.764;9.172;2023-04-15T01:49:13;5.20;99.90
758;DHT22;363;48.764;9.172;2023-04-15T01:51:39;5.20;99.90
758;DHT22;363;48.764;9.172;2023-04-15T01:54:04;4.80;99.90
758;DHT22;363;48.764;9.172;2023-04-15T01:56:30;5.10;99.90
758;DHT22;363;48.764;9.172;2023-04-15T01:58:56;5.10;99.90
758;DHT22;363;48.764;9.172;2023-04-15T02:01:22;4.90;99.90
758;DHT22;363;48.764;9.172;2023-04-15T02:03:47;4.70;99.90
758;DHT22;363;48.764;9.172;2023-04-15T02:06:13;5.00;99.90
758;DHT22;363;48.764;9.172;2023-04-15T02:08:38;5.10;99.90
758;DHT22;363;48.764;9.172;2023-04-15T02:11:04;4.90;99.90
758;DHT22;363;48.764;9.172;2023-04-15T02:13:30;5.10;99.90
758;DHT22;363;48.764;9.172;2023-04-15T02:15:56;4.80;99.90
758;DHT22;363;48.764;9.172;2023-04-15T02:18:21;5.10;99.90
758;DHT22;363;48.764;9.172;2023-04-15T02:20:47;5.00;99.90
758;DHT22;363;48.764;9.172;2023-04-15T02:23:13;4.90;99.90
758;DHT22;363;48.764;9.172;2023-04-15T02:25:38;4.90;99.90
758;DHT22;363;48.764;9.172;2023-04-15T02:28:05;4.30;99.90
758;DHT22;363;48.764;9.172;2023-04-15T02:30:31;5.00;99.90
758;DHT22;363;48.764;9.172;2023-04-15T02:32:57;4.60;99.90
758;DHT22;363;48.764;9.172;2023-04-15T02:35:23;4.80;99.90
758;DHT22;363;48.764;9.172;2023-04-15T02:37:50;4.70;99.90
758;DHT22;363;48.764;9.172;2023-04-15T02:40:16;4.70;99.90
758;DHT22;363;48.764;9.172;2023-04-15T02:42:42;4.50;99.90
758;DHT22;363;48.764;9.172;2023-04-15T02:45:09;4.60;99.90
758;DHT22;363;48.764;9.172;2023-04-15T02:47:35;4.80;99.90
758;DHT22;363;48.764;9.172;2023-04-15T02:50:04;4.70;99.90
758;DHT22;363;48.764;9.172;2023-04-15T02:52:30;4.50;99.90
758;DHT22;363;48.764;9.172;2023-04-15T02:54:55;4.60;99.90
758;DHT22;363;48.764;9.172;2023-04-15T02:57:26;4.70;99.90
758;DHT22;363;48.764;9.172;2023-04-15T02:59:52;4.60;99.90
758;DHT22;363;48.764;9.172;2023-04-15T03:02:18;4.30;99.90
758;DHT22;363;48.764;9.172;2023-04-15T03:04:44;4.50;99.90
758;DHT22;363;48.764;9.172;2023-04-15T03:07:09;4.00;99.90
758;DHT22;363;48.764;9.172;2023-04-15T03:09:35;4.20;99.90
758;DHT22;363;48.764;9.172;2023-04-15T03:12:01;4.40;99.90
758;DHT22;363;48.764;9.172;2023-04-15T03:14:27;4.60;99.90
758;DHT22;363;48.764;9.172;2023-04-15T03:16:52;4.30;99.90
758;DHT22;363;48.764;9.172;2023-04-15T03:19:18;4.40;99.90
758;DHT22;363;48.764;9.172;2023-04-15T03:21:44;4.50;99.90
758;DHT22;363;48.764;9.172;2023-04-15T03:24:10;4.50;99.90
758;DHT22;363;48.764;9.172;2023-04-15T03:26:35;5.00;99.90
758;DHT22;363;48.764;9.172;2023-04-15T03:29:01;4.70;99.90
758;DHT22;363;48.764;9.172;2023-04-15T03:31:26;4.60;99.90
758;DHT22;363;48.764;9.172;2023-04-15T03:33:52;4.50;99.90
758;DHT22;363;48.764;9.172;2023-04-15T03:36:18;4.60;99.90
758;DHT22;363;48.764;9.172;2023-04-15T03:38:43;4.50;99.90
758;DHT22;363;48.764;9.172;2023-04-15T03:41:09;4.70;99.90
758;DHT22;363;48.764;9.172;2023-04-15T03:43:35;4.90;99.90
758;DHT22;363;48.764;9.172;2023-04-15T03:46:01;4.50;99.90
758;DHT22;363;48.764;9.172;2023-04-15T03:48:27;4.50;99.90
758;DHT22;363;48.764;9.172;2023-04-15T03:50:52;4.40;99.90
758;DHT22;363;48.764;9.172;2023-04-15T03:53:19;4.00;99.90
758;DHT22;363;48.764;9.172;2023-04-15T03:55:46;4.50;99.90
758;DHT22;363;48.764;9.172;2023-04-15T03:58:12;4.50;99.90
758;DHT22;363;48.764;9.172;2023-04-15T04:00:38;5.00;99.90
758;DHT22;363;48.764;9.172;2023-04-15T04:03:04;4.90;99.90
758;DHT22;363;48.764;9.172;2023-04-15T04:05:30;4.60;99.90
758;DHT22;363;48.764;9.172;2023-04-15T04:07:56;4.30;99.90
758;DHT22;363;48.764;9.172;2023-04-15T04:10:22;4.30;99.90
758;DHT22;363;48.764;9.172;2023-04-15T04:12:47;4.30;99.90
758;DHT22;363;48.764;9.172;2023-04-15T04:15:13;4.20;99.90
758;DHT22;363;48.764;9.172;2023-04-15T04:17:38;4.20;99.90
758;DHT22;363;48.764;9.172;2023-04-15T04:20:05;3.70;99.90
758;DHT22;363;48.764;9.172;2023-04-15T04:22:36;4.30;99.90
758;DHT22;363;48.764;9.172;2023-04-15T04:25:01;4.20;99.90
758;DHT22;363;48.764;9.172;2023-04-15T04:27:27;4.20;99.90
758;DHT22;363;48.764;9.172;2023-04-15T04:29:52;4.20;99.90
758;DHT22;363;48.764;9.172;2023-04-15T04:32:18;4.40;99.90
758;DHT22;363;48.764;9.172;2023-04-15T04:34:44;4.40;99.90
758;DHT22;363;48.764;9.172;2023-04-15T04:37:09;4.20;99.90
758;DHT22;363;48.764;9.172;2023-04-15T04:39:35;4.10;99.90
758;DHT22;363;48.764;9.172;2023-04-15T04:42:01;4.20;99.90
758;DHT22;363;48.764;9.172;2023-04-15T04:44:26;4.70;99.90
758;DHT22;363;48.764;9.172;2023-04-15T04:46:52;3.60;99.90
758;DHT22;363;48.764;9.172;2023-04-15T04:49:18;4.20;99.90
758;DHT22;363;48.764;9.172;2023-04-15T04:51:43;4.30;99.90
758;DHT22;363;48.764;9.172;2023-04-15T04:54:09;4.30;99.90
758;DHT22;363;48.764;9.172;2023-04-15T04:56:34;4.10;99.90
758;DHT22;363;48.764;9.172;2023-04-15T04:59:00;3.90;99.90
758;DHT22;363;48.764;9.172;2023-04-15T05:01:26;3.60;99.90
758;DHT22;363;48.764;9.172;2023-04-15T05:03:52;4.00;99.90
758;DHT22;363;48.764;9.172;2023-04-15T05:06:17;4.10;99.90
758;DHT22;363;48.764;9.172;2023-04-15T05:08:43;4.00;99.90
758;DHT22;363;48.764;9.172;2023-04-15T05:11:09;3.40;99.90
758;DHT22;363;48.764;9.172;2023-04-15T05:13:34;4.20;99.90
758;DHT22;363;48.764;9.172;2023-04-15T05:16:03;4.20;99.90
758;DHT22;363;48.764;9.172;2023-04-15T05:18:29;4.20;99.90
758;DHT22;363;48.764;9.172;2023-04-15T05:20:55;4.40;99.90
758;DHT22;363;48.764;9.172;2023-04-15T05:23:21;3.70;99.90
758;DHT22;363;48.764;9.172;2023-04-15T05:25:46;3.80;99.90
758;DHT22;363;48.764;9.172;2023-04-15T05:28:12;4.30;99.90
758;DHT22;363;48.764;9.172;2023-04-15T05:30:38;4.20;99.90
758;DHT22;363;48.764;9.172;2023-04-15T05:33:04;4.60;99.90
758;DHT22;363;48.764;9.172;2023-04-15T05:35:29;4.40;99.90
758;DHT22;363;48.764;9.172;2023-04-15T05:37:55;4.50;99.90
758;DHT22;363;48.764;9.172;2023-04-15T05:40:21;4.50;99.90
758;DHT22;363;48.764;9.172;2023-04-15T05:42:47;4.50;99.90
758;DHT22;363;48.764;9.172;2023-04-15T05:45:12;4.40;99.90
758;DHT22;363;48.764;9.172;2023-04-15T05:47:38;4.20;99.90
758;DHT22;363;48.764;9.172;2023-04-15T05:50:04;4.90;99.90
758;DHT22;363;48.764;9.172;2023-04-15T05:52:31;5.10;99.90
758;DHT22;363;48.764;9.172;2023-04-15T05:54:57;5.30;99.90
758;DHT22;363;48.764;9.172;2023-04-15T05:57:22;5.40;99.90
758;DHT22;363;48.764;9.172;2023-04-15T05:59:48;5.10;99.90
758;DHT22;363;48.764;9.172;2023-04-15T06:02:16;5.80;99.90
758;DHT22;363;48.764;9.172;2023-04-15T06:04:42;5.90;99.90
758;DHT22;363;48.764;9.172;2023-04-15T06:07:08;5.50;99.90
758;DHT22;363;48.764;9.172;2023-04-15T06:09:34;6.60;99.90
758;DHT22;363;48.764;9.172;2023-04-15T06:12:00;6.60;99.90
758;DHT22;363;48.764;9.172;2023-04-15T06:14:26;7.00;99.90
758;DHT22;363;48.764;9.172;2023-04-15T06:16:52;7.30;99.90
758;DHT22;363;48.764;9.172;2023-04-15T06:19:17;7.80;99.90
758;DHT22;363;48.764;9.172;2023-04-15T06:21:44;7.70;99.90
758;DHT22;363;48.764;9.172;2023-04-15T06:24:10;7.60;99.90
758;DHT22;363;48.764;9.172;2023-04-15T06:26:36;7.60;99.90
758;DHT22;363;48.764;9.172;2023-04-15T06:29:02;7.60;99.90
758;DHT22;363;48.764;9.172;2023-04-15T06:31:27;8.10;99.90
758;DHT22;363;48.764;9.172;2023-04-15T06:33:53;8.10;99.90
758;DHT22;363;48.764;9.172;2023-04-15T06:36:19;8.80;99.90
758;DHT22;363;48.764;9.172;2023-04-15T06:38:44;9.10;99.90
758;DHT22;363;48.764;9.172;2023-04-15T06:41:10;9.40;99.90
758;DHT22;363;48.764;9.172;2023-04-15T06:43:36;9.20;99.90
758;DHT22;363;48.764;9.172;2023-04-15T06:46:02;9.60;99.20
758;DHT22;363;48.764;9.172;2023-04-15T06:48:27;10.40;97.70
758;DHT22;363;48.764;9.172;2023-04-15T06:50:53;10.80;95.50
758;DHT22;363;48.764;9.172;2023-04-15T06:53:19;10.50;95.40
758;DHT22;363;48.764;9.172;2023-04-15T06:55:44;11.20;95.70
758;DHT22;363;48.764;9.172;2023-04-15T06:58:10;11.40;93.90
758;DHT22;363;48.764;9.172;2023-04-15T07:00:36;11.50;93.00
758;DHT22;363;48.764;9.172;2023-04-15T07:03:03;12.30;92.20
758;DHT22;363;48.764;9.172;2023-04-15T07:05:29;13.60;90.20
758;DHT22;363;48.764;9.172;2023-04-15T07:07:56;14.90;85.10
758;DHT22;363;48.764;9.172;2023-04-15T07:10:22;16.80;78.50
758;DHT22;363;48.764;9.172;2023-04-15T07:12:48;18.60;72.30
758;DHT22;363;48.764;9.172;2023-04-15T07:15:15;20.10;66.80
758;DHT22;363;48.764;9.172;2023-04-15T07:17:41;21.30;60.30
758;DHT22;363;48.764;9.172;2023-04-15T07:20:07;21.10;59.20
758;DHT22;363;48.764;9.172;2023-04-15T07:22:33;22.90;55.90
758;DHT22;363;48.764;9.172;2023-04-15T07:24:59;23.60;54.20
758;DHT22;363;48.764;9.172;2023-04-15T07:27:25;24.70;50.10
758;DHT22;363;48.764;9.172;2023-04-15T07:29:51;24.60;46.80
758;DHT22;363;48.764;9.172;2023-04-15T07:32:17;24.30;49.80
758;DHT22;363;48.764;9.172;2023-04-15T07:34:43;24.60;46.90
758;DHT22;363;48.764;9.172;2023-04-15T07:37:09;24.60;47.30
758;DHT22;363;48.764;9.172;2023-04-15T07:39:34;24.50;46.00
758;DHT22;363;48.764;9.172;2023-04-15T07:42:01;23.60;46.50
758;DHT22;363;48.764;9.172;2023-04-15T07:44:28;22.20;47.90
758;DHT22;363;48.764;9.172;2023-04-15T07:46:55;21.50;48.70
758;DHT22;363;48.764;9.172;2023-04-15T07:49:20;20.30;50.80
758;DHT22;363;48.764;9.172;2023-04-15T07:51:46;19.40;52.10
758;DHT22;363;48.764;9.172;2023-04-15T07:54:13;18.60;54.40
758;DHT22;363;48.764;9.172;2023-04-15T07:56:39;17.80;55.50
758;DHT22;363;48.764;9.172;2023-04-15T07:59:05;16.90;58.00
758;DHT22;363;48.764;9.172;2023-04-15T08:01:30;16.50;58.60
758;DHT22;363;48.764;9.172;2023-04-15T08:03:57;16.30;59.80
758;DHT22;363;48.764;9.172;2023-04-15T08:06:23;15.80;60.60
758;DHT22;363;48.764;9.172;2023-04-15T08:08:49;15.70;62.50
758;DHT22;363;48.764;9.172;2023-04-15T08:11:15;15.90;61.80
758;DHT22;363;48.764;9.172;2023-04-15T08:13:41;16.60;61.30
758;DHT22;363;48.764;9.172;2023-04-15T08:16:24;16.90;60.80
758;DHT22;363;48.764;9.172;2023-04-15T08:18:52;17.30;59.50
758;DHT22;363;48.764;9.172;2023-04-15T08:21:18;17.70;58.90
758;DHT22;363;48.764;9.172;2023-04-15T08:23:46;18.50;58.20
758;DHT22;363;48.764;9.172;2023-04-15T08:26:11;18.90;57.70
758;DHT22;363;48.764;9.172;2023-04-15T08:28:38;19.90;55.40
758;DHT22;363;48.764;9.172;2023-04-15T08:31:05;20.30;53.40
758;DHT22;363;48.764;9.172;2023-04-15T08:33:31;20.10;53.40
758;DHT22;363;48.764;9.172;2023-04-15T08:35:56;20.80;53.10
758;DHT22;363;48.764;9.172;2023-04-15T08:38:25;20.00;54.50
758;DHT22;363;48.764;9.172;2023-04-15T08:40:51;20.60;52.60
758;DHT22;363;48.764;9.172;2023-04-15T08:43:21;21.30;51.70
758;DHT22;363;48.764;9.172;2023-04-15T08:45:53;20.90;51.80
758;DHT22;363;48.764;9.172;2023-04-15T08:48:20;22.20;51.50
758;DHT22;363;48.764;9.172;2023-04-15T08:50:47;21.30;50.70
758;DHT22;363;48.764;9.172;2023-04-15T08:53:13;21.30;50.80
758;DHT22;363;48.764;9.172;2023-04-15T08:55:44;20.70;51.50
758;DHT22;363;48.764;9.172;2023-04-15T08:58:11;22.50;49.90
758;DHT22;363;48.764;9.172;2023-04-15T09:00:38;24.20;48.00
758;DHT22;363;48.764;9.172;2023-04-15T09:03:04;23.70;47.60
758;DHT22;363;48.764;9.172;2023-04-15T09:05:35;24.90;46.60
758;DHT22;363;48.764;9.172;2023-04-15T09:08:01;24.40;45.80
758;DHT22;363;48.764;9.172;2023-04-15T09:10:28;24.30;46.20
758;DHT22;363;48.764;9.172;2023-04-15T09:12:54;24.70;45.20
758;DHT22;363;48.764;9.172;2023-04-15T09:15:20;25.50;44.50
758;DHT22;363;48.764;9.172;2023-04-15T09:17:48;25.00;43.70
758;DHT22;363;48.764;9.172;2023-04-15T09:20:15;24.20;43.50
758;DHT22;363;48.764;9.172;2023-04-15T09:22:44;24.20;44.70
758;DHT22;363;48.764;9.172;2023-04-15T09:27:57;23.80;45.10
758;DHT22;363;48.764;9.172;2023-04-15T09:30:23;22.80;46.40
758;DHT22;363;48.764;9.172;2023-04-15T09:32:50;23.30;46.70
758;DHT22;363;48.764;9.172;2023-04-15T09:35:16;23.40;46.70
758;DHT22;363;48.764;9.172;2023-04-15T09:37:42;23.60;46.30
758;DHT22;363;48.764;9.172;2023-04-15T09:40:08;22.90;46.80
758;DHT22;363;48.764;9.172;2023-04-15T09:42:35;22.70;47.30
758;DHT22;363;48.764;9.172;2023-04-15T09:45:08;21.80;47.60
758;DHT22;363;48.764;9.172;2023-04-15T09:47:36;22.10;47.70
758;DHT22;363;48.764;9.172;2023-04-15T09:50:02;21.50;47.10
758;DHT22;363;48.764;9.172;2023-04-15T09:52:28;21.20;47.70
758;DHT22;363;48.764;9.172;2023-04-15T09:54:55;20.80;47.30
758;DHT22;363;48.764;9.172;2023-04-15T09:57:21;20.40;48.50
758;DHT22;363;48.764;9.172;2023-04-15T09:59:48;19.80;49.30
758;DHT22;363;48.764;9.172;2023-04-15T10:02:15;19.30;50.10
758;DHT22;363;48.764;9.172;2023-04-15T10:04:43;19.00;50.80
758;DHT22;363;48.764;9.172;2023-04-15T10:07:11;18.80;50.80
758;DHT22;363;48.764;9.172;2023-04-15T10:09:40;18.60;51.30
758;DHT22;363;48.764;9.172;2023-04-15T10:12:07;18.60;51.60
758;DHT22;363;48.764;9.172;2023-04-15T10:14:37;18.50;51.40
758;DHT22;363;48.764;9.172;2023-04-15T10:17:04;18.60;51.70
758;DHT22;363;48.764;9.172;2023-04-15T10:19:32;18.90;51.80
758;DHT22;363;48.764;9.172;2023-04-15T10:21:59;18.80;51.40
758;DHT22;363;48.764;9.172;2023-04-15T10:24:24;18.70;51.00
758;DHT22;363;48.764;9.172;2023-04-15T10:26:51;18.60;50.80
758;DHT22;363;48.764;9.172;2023-04-15T10:29:17;18.50;51.30
758;DHT22;363;48.764;9.172;2023-04-15T10:31:43;18.30;51.70
758;DHT22;363;48.764;9.172;2023-04-15T10:34:09;18.30;52.80
758;DHT22;363;48.764;9.172;2023-04-15T10:36:36;18.50;50.80
758;DHT22;363;48.764;9.172;2023-04-15T10:39:02;18.70;49.40
758;DHT22;363;48.764;9.172;2023-04-15T10:41:30;18.80;51.30
758;DHT22;363;48.764;9.172;2023-04-15T10:46:41;18.80;51.50
758;DHT22;363;48.764;9.172;2023-04-15T10:49:13;18.90;51.00
758;DHT22;363;48.764;9.172;2023-04-15T10:51:41;18.90;50.10
758;DHT22;363;48.764;9.172;2023-04-15T10:54:32;18.80;51.00
758;DHT22;363;48.764;9.172;2023-04-15T10:59:30;19.10;53.30
758;DHT22;363;48.764;9.172;2023-04-15T11:02:01;18.40;53.30
758;DHT22;363;48.764;9.172;2023-04-15T11:04:52;18.20;53.10
758;DHT22;363;48.764;9.172;2023-04-15T11:07:54;18.10;52.40
758;DHT22;363;48.764;9.172;2023-04-15T11:13:03;17.60;53.60
758;DHT22;363;48.764;9.172;2023-04-15T11:17:57;17.00;54.80
758;DHT22;363;48.764;9.172;2023-04-15T11:20:23;16.90;54.50
758;DHT22;363;48.764;9.172;2023-04-15T11:22:55;16.70;54.90
758;DHT22;363;48.764;9.172;2023-04-15T11:25:24;16.70;55.50
758;DHT22;363;48.764;9.172;2023-04-15T11:27:51;17.20;55.30
758;DHT22;363;48.764;9.172;2023-04-15T11:30:24;18.50;54.50
758;DHT22;363;48.764;9.172;2023-04-15T11:32:56;19.00;53.30
758;DHT22;363;48.764;9.172;2023-04-15T11:35:22;19.90;50.40
758;DHT22;363;48.764;9.172;2023-04-15T11:37:48;19.80;49.60
758;DHT22;363;48.764;9.172;2023-04-15T11:40:15;19.90;49.20
758;DHT22;363;48.764;9.172;2023-04-15T11:42:43;20.20;48.80
758;DHT22;363;48.764;9.172;2023-04-15T11:45:10;19.80;49.20
758;DHT22;363;48.764;9.172;2023-04-15T11:47:37;19.50;50.20
758;DHT22;363;48.764;9.172;2023-04-15T11:50:20;19.40;50.70
758;DHT22;363;48.764;9.172;2023-04-15T11:52:56;18.80;51.70
758;DHT22;363;48.764;9.172;2023-04-15T11:55:23;17.60;53.90
758;DHT22;363;48.764;9.172;2023-04-15T11:58:04;17.50;57.00
758;DHT22;363;48.764;9.172;2023-04-15T12:00:30;17.20;59.00
758;DHT22;363;48.764;9.172;2023-04-15T12:03:17;16.90;59.60
758;DHT22;363;48.764;9.172;2023-04-15T12:06:07;16.50;59.70
758;DHT22;363;48.764;9.172;2023-04-15T12:16:22;17.00;57.80
758;DHT22;363;48.764;9.172;2023-04-15T12:18:56;16.80;56.90
758;DHT22;363;48.764;9.172;2023-04-15T12:21:24;16.90;57.10
758;DHT22;363;48.764;9.172;2023-04-15T12:23:57;16.90;56.30
758;DHT22;363;48.764;9.172;2023-04-15T12:26:49;17.00;56.20
758;DHT22;363;48.764;9.172;2023-04-15T12:29:16;17.20;55.80
758;DHT22;363;48.764;9.172;2023-04-15T12:31:56;17.50;55.70
758;DHT22;363;48.764;9.172;2023-04-15T12:34:33;17.30;56.20
758;DHT22;363;48.764;9.172;2023-04-15T12:37:02;16.60;59.30
758;DHT22;363;48.764;9.172;2023-04-15T12:39:30;16.20;63.90
758;DHT22;363;48.764;9.172;2023-04-15T12:41:57;15.70;66.10
758;DHT22;363;48.764;9.172;2023-04-15T12:44:24;15.70;68.70
758;DHT22;363;48.764;9.172;2023-04-15T12:46:50;15.60;70.00
758;DHT22;363;48.764;9.172;2023-04-15T12:49:18;15.30;72.70
758;DHT22;363;48.764;9.172;2023-04-15T12:51:46;14.80;76.40
758;DHT22;363;48.764;9.172;2023-04-15T12:54:13;14.40;83.20
758;DHT22;363;48.764;9.172;2023-04-15T12:56:38;13.90;86.30
758;DHT22;363;48.764;9.172;2023-04-15T12:59:04;13.50;89.30
758;DHT22;363;48.764;9.172;2023-04-15T13:01:29;13.50;90.30
758;DHT22;363;48.764;9.172;2023-04-15T13:03:56;13.20;90.50
758;DHT22;363;48.764;9.172;2023-04-15T13:06:21;13.20;91.70
758;DHT22;363;48.764;9.172;2023-04-15T13:08:48;13.30;91.90
758;DHT22;363;48.764;9.172;2023-04-15T13:11:13;13.50;90.60
758;DHT22;363;48.764;9.172;2023-04-15T13:13:39;13.50;89.20
758;DHT22;363;48.764;9.172;2023-04-15T13:16:07;14.20;88.30
758;DHT22;363;48.764;9.172;2023-04-15T13:18:34;13.90;85.20
758;DHT22;363;48.764;9.172;2023-04-15T13:21:02;14.50;83.00
758;DHT22;363;48.764;9.172;2023-04-15T13:23:28;14.40;80.00
758;DHT22;363;48.764;9.172;2023-04-15T13:25:54;14.60;78.50
758;DHT22;363;48.764;9.172;2023-04-15T13:28:19;14.30;77.70
758;DHT22;363;48.764;9.172;2023-04-15T13:30:45;14.30;78.60
758;DHT22;363;48.764;9.172;2023-04-15T13:33:13;14.40;80.00
758;DHT22;363;48.764;9.172;2023-04-15T13:35:38;14.50;77.60
758;DHT22;363;48.764;9.172;2023-04-15T13:38:04;14.50;77.20
758;DHT22;363;48.764;9.172;2023-04-15T13:40:30;14.90;76.40
758;DHT22;363;48.764;9.172;2023-04-15T13:42:55;14.80;74.90
758;DHT22;363;48.764;9.172;2023-04-15T13:45:22;14.70;72.20
758;DHT22;363;48.764;9.172;2023-04-15T13:47:48;15.00;70.80
758;DHT22;363;48.764;9.172;2023-04-15T13:50:14;15.20;67.10
758;DHT22;363;48.764;9.172;2023-04-15T13:52:39;15.60;64.50
758;DHT22;363;48.764;9.172;2023-04-15T13:55:05;15.50;62.60
758;DHT22;363;48.764;9.172;2023-04-15T13:57:31;15.40;61.40
758;DHT22;363;48.764;9.172;2023-04-15T13:59:57;15.40;59.60
758;DHT22;363;48.764;9.172;2023-04-15T14:02:22;15.50;58.70
758;DHT22;363;48.764;9.172;2023-04-15T14:04:48;15.40;58.30
758;DHT22;363;48.764;9.172;2023-04-15T14:07:14;15.50;58.20
758;DHT22;363;48.764;9.172;2023-04-15T14:09:40;15.50;58.20
758;DHT22;363;48.764;9.172;2023-04-15T14:12:05;15.20;56.40
758;DHT22;363;48.764;9.172;2023-04-15T14:14:31;15.30;55.40
758;DHT22;363;48.764;9.172;2023-04-15T14:16:57;14.90;55.80
758;DHT22;363;48.764;9.172;2023-04-15T14:19:23;14.80;56.40
758;DHT22;363;48.764;9.172;2023-04-15T14:21:49;15.00;57.80
758;DHT22;363;48.764;9.172;2023-04-15T14:24:14;14.90;57.40
758;DHT22;363;48.764;9.172;2023-04-15T14:26:42;14.80;55.10
758;DHT22;363;48.764;9.172;2023-04-15T14:29:08;14.70;54.70
758;DHT22;363;48.764;9.172;2023-04-15T14:31:33;14.70;55.40
758;DHT22;363;48.764;9.172;2023-04-15T14:33:59;14.90;55.90
758;DHT22;363;48.764;9.172;2023-04-15T14:36:25;14.80;56.00
758;DHT22;363;48.764;9.172;2023-04-15T14:38:51;14.60;56.30
758;DHT22;363;48.764;9.172;2023-04-15T14:41:17;14.70;56.70
758;DHT22;363;48.764;9.172;2023-04-15T14:43:42;14.40;56.80
758;DHT22;363;48.764;9.172;2023-04-15T14:46:09;14.10;57.80
758;DHT22;363;48.764;9.172;2023-04-15T14:48:34;14.20;58.70
758;DHT22;363;48.764;9.172;2023-04-15T14:51:00;14.40;58.50
758;DHT22;363;48.764;9.172;2023-04-15T14:53:26;13.90;59.30
758;DHT22;363;48.764;9.172;2023-04-15T14:55:51;13.70;59.80
758;DHT22;363;48.764;9.172;2023-04-15T14:58:17;13.70;61.50
758;DHT22;363;48.764;9.172;2023-04-15T15:00:43;13.80;61.90
758;DHT22;363;48.764;9.172;2023-04-15T15:03:10;13.60;62.20
758;DHT22;363;48.764;9.172;2023-04-15T15:05:40;13.70;62.80
758;DHT22;363;48.764;9.172;2023-04-15T15:08:07;13.20;63.10
758;DHT22;363;48.764;9.172;2023-04-15T15:10:34;13.10;64.40
758;DHT22;363;48.764;9.172;2023-04-15T15:13:03;12.90;66.40
758;DHT22;363;48.764;9.172;2023-04-15T15:15:30;12.80;68.50
758;DHT22;363;48.764;9.172;2023-04-15T15:17:55;12.90;69.40
758;DHT22;363;48.764;9.172;2023-04-15T15:20:22;12.80;70.00
758;DHT22;363;48.764;9.172;2023-04-15T15:22:47;12.80;70.90
758;DHT22;363;48.764;9.172;2023-04-15T15:25:13;12.70;72.90
758;DHT22;363;48.764;9.172;2023-04-15T15:27:38;12.60;74.30
758;DHT22;363;48.764;9.172;2023-04-15T15:30:05;12.60;74.40
758;DHT22;363;48.764;9.172;2023-04-15T15:32:31;12.70;74.60
758;DHT22;363;48.764;9.172;2023-04-15T15:34:56;12.50;75.10
758;DHT22;363;48.764;9.172;2023-04-15T15:37:22;12.30;74.80
758;DHT22;363;48.764;9.172;2023-04-15T15:39:48;12.50;76.00
758;DHT22;363;48.764;9.172;2023-04-15T15:42:15;12.90;76.80
758;DHT22;363;48.764;9.172;2023-04-15T15:44:41;12.70;77.40
758;DHT22;363;48.764;9.172;2023-04-15T15:47:07;12.90;78.60
758;DHT22;363;48.764;9.172;2023-04-15T15:49:32;12.90;78.80
758;DHT22;363;48.764;9.172;2023-04-15T15:51:58;12.90;78.10
758;DHT22;363;48.764;9.172;2023-04-15T15:54:24;12.80;78.00
758;DHT22;363;48.764;9.172;2023-04-15T15:56:50;12.80;76.30
758;DHT22;363;48.764;9.172;2023-04-15T15:59:15;12.80;77.00
758;DHT22;363;48.764;9.172;2023-04-15T16:01:42;12.70;76.60
758;DHT22;363;48.764;9.172;2023-04-15T16:04:08;12.90;77.10
758;DHT22;363;48.764;9.172;2023-04-15T16:06:34;13.00;74.80
758;DHT22;363;48.764;9.172;2023-04-15T16:09:00;13.10;76.90
758;DHT22;363;48.764;9.172;2023-04-15T16:11:26;13.10;77.10
758;DHT22;363;48.764;9.172;2023-04-15T16:13:52;13.20;76.30
758;DHT22;363;48.764;9.172;2023-04-15T16:16:17;12.90;75.70
758;DHT22;363;48.764;9.172;2023-04-15T16:18:43;12.70;76.70
758;DHT22;363;48.764;9.172;2023-04-15T16:21:08;12.90;80.70
758;DHT22;363;48.764;9.172;2023-04-15T16:23:35;12.90;83.20
758;DHT22;363;48.764;9.172;2023-04-15T16:26:01;12.70;84.60
758;DHT22;363;48.764;9.172;2023-04-15T16:28:27;12.80;89.80
758;DHT22;363;48.764;9.172;2023-04-15T16:30:53;12.80;91.00
758;DHT22;363;48.764;9.172;2023-04-15T16:33:19;12.50;92.60
758;DHT22;363;48.764;9.172;2023-04-15T16:35:45;12.60;93.50
758;DHT22;363;48.764;9.172;2023-04-15T16:38:11;12.70;93.80
758;DHT22;363;48.764;9.172;2023-04-15T16:40:36;12.40;95.30
758;DHT22;363;48.764;9.172;2023-04-15T16:43:03;12.20;97.10
758;DHT22;363;48.764;9.172;2023-04-15T16:45:31;12.10;97.80
758;DHT22;363;48.764;9.172;2023-04-15T16:47:57;12.20;98.80
758;DHT22;363;48.764;9.172;2023-04-15T16:50:22;12.30;98.40
758;DHT22;363;48.764;9.172;2023-04-15T16:52:48;12.20;98.50
758;DHT22;363;48.764;9.172;2023-04-15T16:55:14;11.70;99.50
758;DHT22;363;48.764;9.172;2023-04-15T16:57:39;11.70;99.70
758;DHT22;363;48.764;9.172;2023-04-15T17:00:06;11.80;99.90